sensor_id;sensor_type;location;lat;lon;timestamp;P1;durP1;ratioP1;P2;durP2;ratioP2
19291;SDS011;9779;51.756;7.450;2022-08-19T00:01:32;3.07;;;2.87;;
19291;SDS011;9779;51.756;7.450;2022-08-19T00:04:00;3.33;;;3.13;;
19291;SDS011;9779;51.756;7.450;2022-08-19T00:06:28;3.00;;;2.80;;
19291;SDS011;9779;51.756;7.450;2022-08-19T00:08:54;4.60;;;3.30;;
19291;SDS011;9779;51.756;7.450;2022-08-19T00:11:21;3.70;;;3.40;;
19291;SDS011;9779;51.756;7.450;2022-08-19T00:13:47;4.47;;;3.97;;
19291;SDS011;9779;51.756;7.450;2022-08-19T00:16:15;3.33;;;3.13;;
19291;SDS011;9779;51.756;7.450;2022-08-19T00:18:43;3.47;;;3.30;;
19291;SDS011;9779;51.756;7.450;2022-08-19T00:21:08;3.50;;;3.20;;
19291;SDS011;9779;51.756;7.450;2022-08-19T00:23:34;3.57;;;3.37;;
19291;SDS011;9779;51.756;7.450;2022-08-19T00:26:01;3.90;;;3.60;;
19291;SDS011;9779;51.756;7.450;2022-08-19T00:28:28;3.90;;;3.63;;
19291;SDS011;9779;51.756;7.450;2022-08-19T00:30:55;3.30;;;3.10;;
19291;SDS011;9779;51.756;7.450;2022-08-19T00:33:20;3.33;;;3.13;;
19291;SDS011;9779;51.756;7.450;2022-08-19T00:35:46;4.03;;;3.30;;
19291;SDS011;9779;51.756;7.450;2022-08-19T00:38:12;3.90;;;3.70;;
19291;SDS011;9779;51.756;7.450;2022-08-19T00:40:37;3.40;;;3.20;;
19291;SDS011;9779;51.756;7.450;2022-08-19T00:43:07;5.37;;;3.33;;
19291;SDS011;9779;51.756;7.450;2022-08-19T00:45:38;3.50;;;3.30;;
19291;SDS011;9779;51.756;7.450;2022-08-19T00:48:06;3.57;;;3.30;;
19291;SDS011;9779;51.756;7.450;2022-08-19T00:50:32;3.63;;;3.43;;
19291;SDS011;9779;51.756;7.450;2022-08-19T00:52:59;3.17;;;2.97;;
19291;SDS011;9779;51.756;7.450;2022-08-19T00:55:26;3.40;;;3.20;;
19291;SDS011;9779;51.756;7.450;2022-08-19T00:57:58;3.27;;;3.07;;
19291;SDS011;9779;51.756;7.450;2022-08-19T01:00:35;4.13;;;3.23;;
19291;SDS011;9779;51.756;7.450;2022-08-19T01:03:10;3.77;;;3.50;;
19291;SDS011;9779;51.756;7.450;2022-08-19T01:05:38;3.27;;;3.07;;
19291;SDS011;9779;51.756;7.450;2022-08-19T01:08:06;3.90;;;3.70;;
19291;SDS011;9779;51.756;7.450;2022-08-19T01:10:33;3.47;;;3.27;;
19291;SDS011;9779;51.756;7.450;2022-08-19T01:13:09;3.53;;;3.33;;
19291;SDS011;9779;51.756;7.450;2022-08-19T01:15:40;4.23;;;3.83;;
19291;SDS011;9779;51.756;7.450;2022-08-19T01:18:12;3.83;;;3.63;;
19291;SDS011;9779;51.756;7.450;2022-08-19T01:20:39;4.00;;;3.80;;
19291;SDS011;9779;51.756;7.450;2022-08-19T01:23:06;4.07;;;3.70;;
19291;SDS011;9779;51.756;7.450;2022-08-19T01:25:39;4.00;;;3.63;;
19291;SDS011;9779;51.756;7.450;2022-08-19T01:30:43;3.53;;;3.33;;
19291;SDS011;9779;51.756;7.450;2022-08-19T01:33:09;5.30;;;3.90;;
19291;SDS011;9779;51.756;7.450;2022-08-19T01:35:35;7.50;;;3.80;;
19291;SDS011;9779;51.756;7.450;2022-08-19T01:38:03;4.60;;;4.20;;
19291;SDS011;9779;51.756;7.450;2022-08-19T01:40:33;4.77;;;4.33;;
19291;SDS011;9779;51.756;7.450;2022-08-19T01:43:01;4.23;;;4.03;;
19291;SDS011;9779;51.756;7.450;2022-08-19T01:45:29;5.23;;;3.97;;
19291;SDS011;9779;51.756;7.450;2022-08-19T01:47:56;4.97;;;4.47;;
19291;SDS011;9779;51.756;7.450;2022-08-19T01:50:22;4.00;;;3.80;;
19291;SDS011;9779;51.756;7.450;2022-08-19T01:52:48;5.53;;;4.30;;
19291;SDS011;9779;51.756;7.450;2022-08-19T01:55:15;4.20;;;3.90;;
19291;SDS011;9779;51.756;7.450;2022-08-19T01:57:44;4.23;;;4.03;;
19291;SDS011;9779;51.756;7.450;2022-08-19T02:00:15;5.07;;;4.73;;
19291;SDS011;9779;51.756;7.450;2022-08-19T02:02:44;4.37;;;4.17;;
19291;SDS011;9779;51.756;7.450;2022-08-19T02:05:10;5.70;;;4.10;;
19291;SDS011;9779;51.756;7.450;2022-08-19T02:07:37;8.20;;;4.07;;
19291;SDS011;9779;51.756;7.450;2022-08-19T02:10:05;4.57;;;4.03;;
19291;SDS011;9779;51.756;7.450;2022-08-19T02:12:35;7.57;;;3.97;;
19291;SDS011;9779;51.756;7.450;2022-08-19T02:15:01;5.23;;;4.60;;
19291;SDS011;9779;51.756;7.450;2022-08-19T02:17:28;5.67;;;4.27;;
19291;SDS011;9779;51.756;7.450;2022-08-19T02:19:54;4.63;;;4.23;;
19291;SDS011;9779;51.756;7.450;2022-08-19T02:22:21;4.17;;;3.97;;
19291;SDS011;9779;51.756;7.450;2022-08-19T02:24:47;4.90;;;4.50;;
19291;SDS011;9779;51.756;7.450;2022-08-19T02:27:13;4.23;;;3.93;;
19291;SDS011;9779;51.756;7.450;2022-08-19T02:29:39;4.53;;;4.23;;
19291;SDS011;9779;51.756;7.450;2022-08-19T02:32:06;4.67;;;4.17;;
19291;SDS011;9779;51.756;7.450;2022-08-19T02:34:32;4.33;;;3.93;;
19291;SDS011;9779;51.756;7.450;2022-08-19T02:36:58;4.63;;;4.23;;
19291;SDS011;9779;51.756;7.450;2022-08-19T02:39:23;4.87;;;4.53;;
19291;SDS011;9779;51.756;7.450;2022-08-19T02:41:49;5.57;;;5.20;;
19291;SDS011;9779;51.756;7.450;2022-08-19T02:44:15;5.40;;;5.00;;
19291;SDS011;9779;51.756;7.450;2022-08-19T02:46:41;5.70;;;5.30;;
19291;SDS011;9779;51.756;7.450;2022-08-19T02:49:08;5.63;;;5.30;;
19291;SDS011;9779;51.756;7.450;2022-08-19T02:51:38;5.40;;;5.20;;
19291;SDS011;9779;51.756;7.450;2022-08-19T02:54:07;6.67;;;6.27;;
19291;SDS011;9779;51.756;7.450;2022-08-19T02:56:35;6.27;;;5.93;;
19291;SDS011;9779;51.756;7.450;2022-08-19T02:59:03;7.93;;;6.40;;
19291;SDS011;9779;51.756;7.450;2022-08-19T03:01:33;7.90;;;6.27;;
19291;SDS011;9779;51.756;7.450;2022-08-19T03:04:02;6.60;;;6.20;;
19291;SDS011;9779;51.756;7.450;2022-08-19T03:06:30;6.97;;;6.57;;
19291;SDS011;9779;51.756;7.450;2022-08-19T03:08:56;6.40;;;6.00;;
19291;SDS011;9779;51.756;7.450;2022-08-19T03:11:24;7.17;;;6.57;;
19291;SDS011;9779;51.756;7.450;2022-08-19T03:13:51;7.17;;;6.77;;
19291;SDS011;9779;51.756;7.450;2022-08-19T03:16:18;7.53;;;7.07;;
19291;SDS011;9779;51.756;7.450;2022-08-19T03:18:45;8.17;;;7.47;;
19291;SDS011;9779;51.756;7.450;2022-08-19T03:21:17;8.30;;;7.53;;
19291;SDS011;9779;51.756;7.450;2022-08-19T03:23:48;8.07;;;7.47;;
19291;SDS011;9779;51.756;7.450;2022-08-19T03:26:14;6.60;;;6.20;;
19291;SDS011;9779;51.756;7.450;2022-08-19T03:28:40;6.83;;;6.33;;
19291;SDS011;9779;51.756;7.450;2022-08-19T03:31:09;6.47;;;6.00;;
19291;SDS011;9779;51.756;7.450;2022-08-19T03:33:36;6.30;;;5.83;;
19291;SDS011;9779;51.756;7.450;2022-08-19T03:38:32;10.03;;;5.33;;
19291;SDS011;9779;51.756;7.450;2022-08-19T03:41:02;6.13;;;5.63;;
19291;SDS011;9779;51.756;7.450;2022-08-19T03:43:31;6.17;;;5.77;;
19291;SDS011;9779;51.756;7.450;2022-08-19T03:46:02;6.63;;;6.03;;
19291;SDS011;9779;51.756;7.450;2022-08-19T03:48:29;6.73;;;6.17;;
19291;SDS011;9779;51.756;7.450;2022-08-19T03:50:56;6.80;;;6.30;;
19291;SDS011;9779;51.756;7.450;2022-08-19T03:53:23;6.43;;;5.83;;
19291;SDS011;9779;51.756;7.450;2022-08-19T03:55:48;7.27;;;6.30;;
19291;SDS011;9779;51.756;7.450;2022-08-19T03:58:14;7.00;;;6.40;;
19291;SDS011;9779;51.756;7.450;2022-08-19T04:00:41;6.43;;;5.93;;
19291;SDS011;9779;51.756;7.450;2022-08-19T04:03:08;6.43;;;6.07;;
19291;SDS011;9779;51.756;7.450;2022-08-19T04:05:34;5.90;;;5.60;;
19291;SDS011;9779;51.756;7.450;2022-08-19T04:07:59;6.97;;;6.50;;
19291;SDS011;9779;51.756;7.450;2022-08-19T04:10:25;7.43;;;6.93;;
19291;SDS011;9779;51.756;7.450;2022-08-19T04:12:52;7.97;;;7.47;;
19291;SDS011;9779;51.756;7.450;2022-08-19T04:15:18;7.10;;;6.70;;
19291;SDS011;9779;51.756;7.450;2022-08-19T04:17:45;7.57;;;7.03;;
19291;SDS011;9779;51.756;7.450;2022-08-19T04:20:11;6.90;;;6.50;;
19291;SDS011;9779;51.756;7.450;2022-08-19T04:22:36;7.20;;;6.57;;
19291;SDS011;9779;51.756;7.450;2022-08-19T04:25:02;7.77;;;7.17;;
19291;SDS011;9779;51.756;7.450;2022-08-19T04:27:28;7.23;;;6.77;;
19291;SDS011;9779;51.756;7.450;2022-08-19T04:29:54;7.33;;;6.93;;
19291;SDS011;9779;51.756;7.450;2022-08-19T04:32:20;7.57;;;7.07;;
19291;SDS011;9779;51.756;7.450;2022-08-19T04:34:46;7.17;;;6.67;;
19291;SDS011;9779;51.756;7.450;2022-08-19T04:37:11;7.30;;;6.90;;
19291;SDS011;9779;51.756;7.450;2022-08-19T04:39:37;6.67;;;6.17;;
19291;SDS011;9779;51.756;7.450;2022-08-19T04:42:21;6.90;;;6.33;;
19291;SDS011;9779;51.756;7.450;2022-08-19T04:45:09;7.90;;;7.27;;
19291;SDS011;9779;51.756;7.450;2022-08-19T04:47:38;7.50;;;6.87;;
19291;SDS011;9779;51.756;7.450;2022-08-19T04:50:06;7.57;;;7.07;;
19291;SDS011;9779;51.756;7.450;2022-08-19T04:52:36;7.43;;;6.70;;
19291;SDS011;9779;51.756;7.450;2022-08-19T04:55:11;7.47;;;6.97;;
19291;SDS011;9779;51.756;7.450;2022-08-19T04:57:37;7.80;;;7.10;;
19291;SDS011;9779;51.756;7.450;2022-08-19T05:00:06;8.03;;;7.23;;
19291;SDS011;9779;51.756;7.450;2022-08-19T05:02:35;8.07;;;7.57;;
19291;SDS011;9779;51.756;7.450;2022-08-19T05:05:02;8.67;;;7.30;;
19291;SDS011;9779;51.756;7.450;2022-08-19T05:07:28;12.57;;;6.90;;
19291;SDS011;9779;51.756;7.450;2022-08-19T05:09:54;14.10;;;7.97;;
19291;SDS011;9779;51.756;7.450;2022-08-19T05:12:20;9.20;;;7.40;;
19291;SDS011;9779;51.756;7.450;2022-08-19T05:14:46;8.47;;;7.90;;
19291;SDS011;9779;51.756;7.450;2022-08-19T05:17:12;8.37;;;7.60;;
19291;SDS011;9779;51.756;7.450;2022-08-19T05:19:38;8.77;;;8.07;;
19291;SDS011;9779;51.756;7.450;2022-08-19T05:22:22;9.87;;;7.80;;
19291;SDS011;9779;51.756;7.450;2022-08-19T05:24:57;8.73;;;8.13;;
19291;SDS011;9779;51.756;7.450;2022-08-19T05:27:22;9.27;;;8.53;;
19291;SDS011;9779;51.756;7.450;2022-08-19T05:29:48;7.53;;;6.87;;
19291;SDS011;9779;51.756;7.450;2022-08-19T05:32:14;8.13;;;7.43;;
19291;SDS011;9779;51.756;7.450;2022-08-19T05:34:39;7.90;;;7.20;;
19291;SDS011;9779;51.756;7.450;2022-08-19T05:37:05;7.30;;;6.80;;
19291;SDS011;9779;51.756;7.450;2022-08-19T05:39:33;6.93;;;6.53;;
19291;SDS011;9779;51.756;7.450;2022-08-19T05:42:05;7.17;;;6.57;;
19291;SDS011;9779;51.756;7.450;2022-08-19T05:44:34;8.43;;;7.93;;
19291;SDS011;9779;51.756;7.450;2022-08-19T05:47:03;11.80;;;8.23;;
19291;SDS011;9779;51.756;7.450;2022-08-19T05:49:31;7.67;;;7.00;;
19291;SDS011;9779;51.756;7.450;2022-08-19T05:51:58;9.03;;;8.13;;
19291;SDS011;9779;51.756;7.450;2022-08-19T05:54:26;11.00;;;7.20;;
19291;SDS011;9779;51.756;7.450;2022-08-19T05:56:52;7.83;;;7.00;;
19291;SDS011;9779;51.756;7.450;2022-08-19T05:59:19;8.37;;;7.80;;
19291;SDS011;9779;51.756;7.450;2022-08-19T06:01:46;9.47;;;8.77;;
19291;SDS011;9779;51.756;7.450;2022-08-19T06:04:15;11.40;;;10.40;;
19291;SDS011;9779;51.756;7.450;2022-08-19T06:06:43;11.33;;;10.33;;
19291;SDS011;9779;51.756;7.450;2022-08-19T06:09:09;10.23;;;9.53;;
19291;SDS011;9779;51.756;7.450;2022-08-19T06:11:39;10.80;;;9.97;;
19291;SDS011;9779;51.756;7.450;2022-08-19T06:14:09;11.63;;;10.60;;
19291;SDS011;9779;51.756;7.450;2022-08-19T06:16:37;12.67;;;10.67;;
19291;SDS011;9779;51.756;7.450;2022-08-19T06:19:05;11.63;;;10.80;;
19291;SDS011;9779;51.756;7.450;2022-08-19T06:21:33;12.13;;;11.33;;
19291;SDS011;9779;51.756;7.450;2022-08-19T06:24:02;9.37;;;8.67;;
19291;SDS011;9779;51.756;7.450;2022-08-19T06:26:33;9.27;;;8.63;;
19291;SDS011;9779;51.756;7.450;2022-08-19T06:28:59;10.93;;;10.07;;
19291;SDS011;9779;51.756;7.450;2022-08-19T06:31:26;10.93;;;9.90;;
19291;SDS011;9779;51.756;7.450;2022-08-19T06:33:53;12.53;;;11.63;;
19291;SDS011;9779;51.756;7.450;2022-08-19T06:36:26;10.03;;;9.20;;
19291;SDS011;9779;51.756;7.450;2022-08-19T06:38:54;10.33;;;9.63;;
19291;SDS011;9779;51.756;7.450;2022-08-19T06:41:22;8.47;;;7.67;;
19291;SDS011;9779;51.756;7.450;2022-08-19T06:43:47;8.80;;;8.20;;
19291;SDS011;9779;51.756;7.450;2022-08-19T06:46:14;11.60;;;10.57;;
19291;SDS011;9779;51.756;7.450;2022-08-19T06:48:40;14.83;;;9.13;;
19291;SDS011;9779;51.756;7.450;2022-08-19T06:51:06;14.73;;;7.90;;
19291;SDS011;9779;51.756;7.450;2022-08-19T06:53:32;8.33;;;7.73;;
19291;SDS011;9779;51.756;7.450;2022-08-19T06:55:59;9.93;;;8.97;;
19291;SDS011;9779;51.756;7.450;2022-08-19T06:58:28;12.87;;;11.63;;
19291;SDS011;9779;51.756;7.450;2022-08-19T07:00:57;10.43;;;9.43;;
19291;SDS011;9779;51.756;7.450;2022-08-19T07:03:25;13.50;;;12.33;;
19291;SDS011;9779;51.756;7.450;2022-08-19T07:05:53;12.00;;;11.10;;
19291;SDS011;9779;51.756;7.450;2022-08-19T07:08:18;11.00;;;10.00;;
19291;SDS011;9779;51.756;7.450;2022-08-19T07:10:45;11.83;;;10.83;;
19291;SDS011;9779;51.756;7.450;2022-08-19T07:13:11;10.17;;;9.43;;
19291;SDS011;9779;51.756;7.450;2022-08-19T07:15:37;10.40;;;9.67;;
19291;SDS011;9779;51.756;7.450;2022-08-19T07:18:02;11.70;;;10.30;;
19291;SDS011;9779;51.756;7.450;2022-08-19T07:20:28;14.73;;;12.07;;
19291;SDS011;9779;51.756;7.450;2022-08-19T07:22:54;15.90;;;13.23;;
19291;SDS011;9779;51.756;7.450;2022-08-19T07:25:19;10.67;;;9.77;;
19291;SDS011;9779;51.756;7.450;2022-08-19T07:27:45;15.83;;;12.70;;
19291;SDS011;9779;51.756;7.450;2022-08-19T07:30:13;10.23;;;9.37;;
19291;SDS011;9779;51.756;7.450;2022-08-19T07:32:39;13.13;;;12.03;;
19291;SDS011;9779;51.756;7.450;2022-08-19T07:35:05;16.40;;;12.57;;
19291;SDS011;9779;51.756;7.450;2022-08-19T07:37:31;19.63;;;13.03;;
19291;SDS011;9779;51.756;7.450;2022-08-19T07:39:57;17.23;;;14.93;;
19291;SDS011;9779;51.756;7.450;2022-08-19T07:42:22;14.90;;;13.40;;
19291;SDS011;9779;51.756;7.450;2022-08-19T07:44:48;19.93;;;14.97;;
19291;SDS011;9779;51.756;7.450;2022-08-19T07:47:14;17.23;;;14.63;;
19291;SDS011;9779;51.756;7.450;2022-08-19T07:49:40;16.17;;;14.43;;
19291;SDS011;9779;51.756;7.450;2022-08-19T07:52:07;15.80;;;14.37;;
19291;SDS011;9779;51.756;7.450;2022-08-19T07:54:35;16.85;;;13.80;;
19291;SDS011;9779;51.756;7.450;2022-08-19T07:57:02;13.30;;;12.03;;
19291;SDS011;9779;51.756;7.450;2022-08-19T07:59:28;14.60;;;13.13;;
19291;SDS011;9779;51.756;7.450;2022-08-19T08:01:55;14.33;;;12.83;;
19291;SDS011;9779;51.756;7.450;2022-08-19T08:04:21;13.70;;;11.57;;
19291;SDS011;9779;51.756;7.450;2022-08-19T08:07:06;14.40;;;11.43;;
19291;SDS011;9779;51.756;7.450;2022-08-19T08:09:51;13.70;;;12.55;;
19291;SDS011;9779;51.756;7.450;2022-08-19T08:12:19;11.50;;;10.27;;
19291;SDS011;9779;51.756;7.450;2022-08-19T08:14:51;14.27;;;12.75;;
19291;SDS011;9779;51.756;7.450;2022-08-19T08:17:19;13.95;;;11.88;;
19291;SDS011;9779;51.756;7.450;2022-08-19T08:19:49;9.77;;;8.82;;
19291;SDS011;9779;51.756;7.450;2022-08-19T08:22:16;11.50;;;10.50;;
19291;SDS011;9779;51.756;7.450;2022-08-19T08:25:08;10.68;;;9.70;;
19291;SDS011;9779;51.756;7.450;2022-08-19T08:27:39;10.77;;;9.75;;
19291;SDS011;9779;51.756;7.450;2022-08-19T08:30:07;10.85;;;9.73;;
19291;SDS011;9779;51.756;7.450;2022-08-19T08:32:36;13.70;;;10.40;;
19291;SDS011;9779;51.756;7.450;2022-08-19T08:35:04;10.93;;;9.93;;
19291;SDS011;9779;51.756;7.450;2022-08-19T08:37:30;10.07;;;8.30;;
19291;SDS011;9779;51.756;7.450;2022-08-19T08:39:55;11.80;;;10.55;;
19291;SDS011;9779;51.756;7.450;2022-08-19T08:42:23;10.27;;;9.48;;
19291;SDS011;9779;51.756;7.450;2022-08-19T08:45:03;11.85;;;8.82;;
19291;SDS011;9779;51.756;7.450;2022-08-19T08:47:40;10.77;;;9.88;;
19291;SDS011;9779;51.756;7.450;2022-08-19T08:50:19;10.70;;;9.68;;
19291;SDS011;9779;51.756;7.450;2022-08-19T08:52:51;10.60;;;9.80;;
19291;SDS011;9779;51.756;7.450;2022-08-19T08:55:21;10.10;;;7.88;;
19291;SDS011;9779;51.756;7.450;2022-08-19T09:00:37;10.55;;;7.88;;
19291;SDS011;9779;51.756;7.450;2022-08-19T09:03:05;8.65;;;7.95;;
19291;SDS011;9779;51.756;7.450;2022-08-19T09:05:59;13.95;;;9.23;;
19291;SDS011;9779;51.756;7.450;2022-08-19T09:08:55;19.50;;;9.02;;
19291;SDS011;9779;51.756;7.450;2022-08-19T09:14:19;5.45;;;5.07;;
19291;SDS011;9779;51.756;7.450;2022-08-19T09:16:54;8.00;;;5.88;;
19291;SDS011;9779;51.756;7.450;2022-08-19T09:19:22;6.57;;;6.05;;
19291;SDS011;9779;51.756;7.450;2022-08-19T09:21:47;9.82;;;6.07;;
19291;SDS011;9779;51.756;7.450;2022-08-19T09:24:14;6.07;;;5.57;;
19291;SDS011;9779;51.756;7.450;2022-08-19T09:26:39;6.88;;;4.85;;
19291;SDS011;9779;51.756;7.450;2022-08-19T09:29:05;5.00;;;3.95;;
19291;SDS011;9779;51.756;7.450;2022-08-19T09:31:31;3.97;;;3.38;;
19291;SDS011;9779;51.756;7.450;2022-08-19T09:33:57;3.38;;;3.08;;
19291;SDS011;9779;51.756;7.450;2022-08-19T09:36:25;2.95;;;2.75;;
19291;SDS011;9779;51.756;7.450;2022-08-19T09:38:54;4.47;;;3.72;;
19291;SDS011;9779;51.756;7.450;2022-08-19T09:41:21;3.70;;;3.45;;
19291;SDS011;9779;51.756;7.450;2022-08-19T09:43:48;4.80;;;3.53;;
19291;SDS011;9779;51.756;7.450;2022-08-19T09:46:20;5.38;;;4.07;;
19291;SDS011;9779;51.756;7.450;2022-08-19T09:48:47;9.75;;;3.75;;
19291;SDS011;9779;51.756;7.450;2022-08-19T09:51:16;3.90;;;3.60;;
19291;SDS011;9779;51.756;7.450;2022-08-19T09:53:47;4.63;;;4.25;;
19291;SDS011;9779;51.756;7.450;2022-08-19T09:56:19;4.82;;;3.50;;
19291;SDS011;9779;51.756;7.450;2022-08-19T09:58:46;4.05;;;3.65;;
19291;SDS011;9779;51.756;7.450;2022-08-19T10:01:22;3.40;;;3.20;;
19291;SDS011;9779;51.756;7.450;2022-08-19T10:03:51;3.78;;;3.47;;
19291;SDS011;9779;51.756;7.450;2022-08-19T10:06:19;3.00;;;2.80;;
19291;SDS011;9779;51.756;7.450;2022-08-19T10:08:45;3.00;;;2.80;;
19291;SDS011;9779;51.756;7.450;2022-08-19T10:11:12;3.80;;;3.25;;
19291;SDS011;9779;51.756;7.450;2022-08-19T10:13:40;3.38;;;3.17;;
19291;SDS011;9779;51.756;7.450;2022-08-19T10:16:08;4.15;;;3.10;;
19291;SDS011;9779;51.756;7.450;2022-08-19T10:18:36;3.75;;;3.55;;
19291;SDS011;9779;51.756;7.450;2022-08-19T10:21:07;6.90;;;4.45;;
19291;SDS011;9779;51.756;7.450;2022-08-19T10:23:35;4.93;;;4.63;;
19291;SDS011;9779;51.756;7.450;2022-08-19T10:26:03;3.42;;;3.22;;
19291;SDS011;9779;51.756;7.450;2022-08-19T10:28:30;4.68;;;4.38;;
19291;SDS011;9779;51.756;7.450;2022-08-19T10:30:57;3.40;;;3.10;;
19291;SDS011;9779;51.756;7.450;2022-08-19T10:33:23;4.45;;;4.05;;
19291;SDS011;9779;51.756;7.450;2022-08-19T10:35:58;8.25;;;2.70;;
19291;SDS011;9779;51.756;7.450;2022-08-19T10:38:24;3.53;;;3.22;;
19291;SDS011;9779;51.756;7.450;2022-08-19T10:40:50;4.70;;;4.30;;
19291;SDS011;9779;51.756;7.450;2022-08-19T10:43:15;8.45;;;3.95;;
19291;SDS011;9779;51.756;7.450;2022-08-19T10:45:42;8.20;;;4.43;;
19291;SDS011;9779;51.756;7.450;2022-08-19T10:48:07;4.35;;;4.05;;
19291;SDS011;9779;51.756;7.450;2022-08-19T10:50:33;4.97;;;4.18;;
19291;SDS011;9779;51.756;7.450;2022-08-19T10:53:17;5.85;;;3.80;;
19291;SDS011;9779;51.756;7.450;2022-08-19T10:55:44;6.20;;;4.82;;
19291;SDS011;9779;51.756;7.450;2022-08-19T10:58:29;4.82;;;4.30;;
19291;SDS011;9779;51.756;7.450;2022-08-19T11:00:56;3.78;;;3.55;;
19291;SDS011;9779;51.756;7.450;2022-08-19T11:03:23;4.03;;;3.72;;
19291;SDS011;9779;51.756;7.450;2022-08-19T11:05:57;5.07;;;4.68;;
19291;SDS011;9779;51.756;7.450;2022-08-19T11:08:27;4.93;;;4.53;;
19291;SDS011;9779;51.756;7.450;2022-08-19T11:10:55;5.20;;;4.80;;
19291;SDS011;9779;51.756;7.450;2022-08-19T11:13:29;5.70;;;5.20;;
19291;SDS011;9779;51.756;7.450;2022-08-19T11:16:00;4.90;;;4.32;;
19291;SDS011;9779;51.756;7.450;2022-08-19T11:18:28;5.00;;;4.60;;
19291;SDS011;9779;51.756;7.450;2022-08-19T11:20:54;6.22;;;5.80;;
19291;SDS011;9779;51.756;7.450;2022-08-19T11:23:20;4.90;;;4.40;;
19291;SDS011;9779;51.756;7.450;2022-08-19T11:25:45;5.07;;;4.78;;
19291;SDS011;9779;51.756;7.450;2022-08-19T11:28:11;6.35;;;5.90;;
19291;SDS011;9779;51.756;7.450;2022-08-19T11:30:38;5.85;;;5.35;;
19291;SDS011;9779;51.756;7.450;2022-08-19T11:33:04;5.47;;;5.18;;
19291;SDS011;9779;51.756;7.450;2022-08-19T11:35:29;4.65;;;4.30;;
19291;SDS011;9779;51.756;7.450;2022-08-19T11:37:55;5.40;;;5.00;;
19291;SDS011;9779;51.756;7.450;2022-08-19T11:40:26;6.25;;;5.50;;
19291;SDS011;9779;51.756;7.450;2022-08-19T11:42:52;4.32;;;4.03;;
19291;SDS011;9779;51.756;7.450;2022-08-19T11:45:22;10.70;;;5.00;;
19291;SDS011;9779;51.756;7.450;2022-08-19T11:47:49;5.40;;;5.00;;
19291;SDS011;9779;51.756;7.450;2022-08-19T11:50:15;8.63;;;4.82;;
19291;SDS011;9779;51.756;7.450;2022-08-19T11:52:41;4.00;;;3.00;;
19291;SDS011;9779;51.756;7.450;2022-08-19T11:55:08;2.78;;;2.58;;
19291;SDS011;9779;51.756;7.450;2022-08-19T11:57:34;5.60;;;4.05;;
19291;SDS011;9779;51.756;7.450;2022-08-19T12:00:00;5.90;;;4.40;;
19291;SDS011;9779;51.756;7.450;2022-08-19T12:02:26;5.38;;;4.72;;
19291;SDS011;9779;51.756;7.450;2022-08-19T12:04:52;4.30;;;4.00;;
19291;SDS011;9779;51.756;7.450;2022-08-19T12:07:17;3.95;;;3.65;;
19291;SDS011;9779;51.756;7.450;2022-08-19T12:09:43;5.93;;;3.15;;
19291;SDS011;9779;51.756;7.450;2022-08-19T12:12:09;3.40;;;3.20;;
19291;SDS011;9779;51.756;7.450;2022-08-19T12:14:35;4.15;;;3.85;;
19291;SDS011;9779;51.756;7.450;2022-08-19T12:17:01;3.65;;;3.45;;
19291;SDS011;9779;51.756;7.450;2022-08-19T12:19:29;3.63;;;3.38;;
19291;SDS011;9779;51.756;7.450;2022-08-19T12:21:58;3.22;;;3.10;;
19291;SDS011;9779;51.756;7.450;2022-08-19T12:24:26;5.45;;;3.92;;
19291;SDS011;9779;51.756;7.450;2022-08-19T12:26:52;5.63;;;4.30;;
19291;SDS011;9779;51.756;7.450;2022-08-19T12:29:20;4.32;;;3.92;;
19291;SDS011;9779;51.756;7.450;2022-08-19T12:31:46;3.20;;;2.90;;
19291;SDS011;9779;51.756;7.450;2022-08-19T12:34:12;4.68;;;2.72;;
19291;SDS011;9779;51.756;7.450;2022-08-19T12:36:37;3.05;;;2.85;;
19291;SDS011;9779;51.756;7.450;2022-08-19T12:39:03;7.05;;;2.90;;
19291;SDS011;9779;51.756;7.450;2022-08-19T12:41:29;3.15;;;2.85;;
19291;SDS011;9779;51.756;7.450;2022-08-19T12:43:54;3.17;;;2.92;;
19291;SDS011;9779;51.756;7.450;2022-08-19T12:46:20;3.60;;;3.08;;
19291;SDS011;9779;51.756;7.450;2022-08-19T12:48:46;3.40;;;3.10;;
19291;SDS011;9779;51.756;7.450;2022-08-19T12:51:13;2.90;;;2.72;;
19291;SDS011;9779;51.756;7.450;2022-08-19T12:53:41;9.30;;;2.92;;
19291;SDS011;9779;51.756;7.450;2022-08-19T12:56:07;4.05;;;2.72;;
19291;SDS011;9779;51.756;7.450;2022-08-19T12:58:33;3.33;;;2.38;;
19291;SDS011;9779;51.756;7.450;2022-08-19T13:01:05;3.92;;;2.42;;
19291;SDS011;9779;51.756;7.450;2022-08-19T13:03:32;2.92;;;2.78;;
19291;SDS011;9779;51.756;7.450;2022-08-19T13:05:57;3.00;;;2.80;;
19291;SDS011;9779;51.756;7.450;2022-08-19T13:08:23;2.85;;;2.65;;
19291;SDS011;9779;51.756;7.450;2022-08-19T13:10:49;3.40;;;3.10;;
19291;SDS011;9779;51.756;7.450;2022-08-19T13:13:15;4.80;;;4.40;;
19291;SDS011;9779;51.756;7.450;2022-08-19T13:15:42;7.20;;;3.58;;
19291;SDS011;9779;51.756;7.450;2022-08-19T13:18:10;6.47;;;3.65;;
19291;SDS011;9779;51.756;7.450;2022-08-19T13:20:37;4.32;;;4.03;;
19291;SDS011;9779;51.756;7.450;2022-08-19T13:23:05;3.13;;;2.92;;
19291;SDS011;9779;51.756;7.450;2022-08-19T13:25:31;3.75;;;3.40;;
19291;SDS011;9779;51.756;7.450;2022-08-19T13:27:57;7.38;;;4.60;;
19291;SDS011;9779;51.756;7.450;2022-08-19T13:30:24;4.45;;;4.15;;
19291;SDS011;9779;51.756;7.450;2022-08-19T13:33:15;4.75;;;4.43;;
19291;SDS011;9779;51.756;7.450;2022-08-19T13:35:53;4.60;;;3.75;;
19291;SDS011;9779;51.756;7.450;2022-08-19T13:38:23;6.10;;;4.13;;
19291;SDS011;9779;51.756;7.450;2022-08-19T13:40:49;4.05;;;3.85;;
19291;SDS011;9779;51.756;7.450;2022-08-19T13:43:17;4.97;;;4.28;;
19291;SDS011;9779;51.756;7.450;2022-08-19T13:45:44;5.05;;;4.65;;
19291;SDS011;9779;51.756;7.450;2022-08-19T13:48:10;10.25;;;4.28;;
19291;SDS011;9779;51.756;7.450;2022-08-19T13:50:40;4.93;;;4.43;;
19291;SDS011;9779;51.756;7.450;2022-08-19T13:53:09;4.97;;;4.25;;
19291;SDS011;9779;51.756;7.450;2022-08-19T13:55:39;3.92;;;3.50;;
19291;SDS011;9779;51.756;7.450;2022-08-19T13:58:07;3.70;;;3.50;;
19291;SDS011;9779;51.756;7.450;2022-08-19T14:00:34;4.15;;;3.47;;
19291;SDS011;9779;51.756;7.450;2022-08-19T14:03:02;3.67;;;3.42;;
19291;SDS011;9779;51.756;7.450;2022-08-19T14:05:29;3.20;;;3.00;;
19291;SDS011;9779;51.756;7.450;2022-08-19T14:07:55;3.10;;;2.90;;
19291;SDS011;9779;51.756;7.450;2022-08-19T14:10:22;3.10;;;2.90;;
19291;SDS011;9779;51.756;7.450;2022-08-19T14:12:49;3.28;;;3.08;;
19291;SDS011;9779;51.756;7.450;2022-08-19T14:15:18;3.13;;;2.72;;
19291;SDS011;9779;51.756;7.450;2022-08-19T14:17:44;3.17;;;2.97;;
19291;SDS011;9779;51.756;7.450;2022-08-19T14:20:13;2.80;;;2.60;;
19291;SDS011;9779;51.756;7.450;2022-08-19T14:22:41;3.95;;;2.97;;
19291;SDS011;9779;51.756;7.450;2022-08-19T14:25:08;4.65;;;2.78;;
19291;SDS011;9779;51.756;7.450;2022-08-19T14:27:37;2.70;;;2.50;;
19291;SDS011;9779;51.756;7.450;2022-08-19T14:30:04;2.58;;;2.38;;
19291;SDS011;9779;51.756;7.450;2022-08-19T14:32:32;6.63;;;2.28;;
19291;SDS011;9779;51.756;7.450;2022-08-19T14:34:59;1.80;;;1.70;;
19291;SDS011;9779;51.756;7.450;2022-08-19T14:37:26;2.65;;;2.45;;
19291;SDS011;9779;51.756;7.450;2022-08-19T14:39:51;2.78;;;1.88;;
19291;SDS011;9779;51.756;7.450;2022-08-19T14:42:17;4.03;;;2.20;;
19291;SDS011;9779;51.756;7.450;2022-08-19T14:44:44;6.05;;;2.00;;
19291;SDS011;9779;51.756;7.450;2022-08-19T14:47:09;2.28;;;2.17;;
19291;SDS011;9779;51.756;7.450;2022-08-19T14:49:35;2.17;;;1.95;;
19291;SDS011;9779;51.756;7.450;2022-08-19T14:52:01;2.60;;;2.40;;
19291;SDS011;9779;51.756;7.450;2022-08-19T14:54:28;5.18;;;2.10;;
19291;SDS011;9779;51.756;7.450;2022-08-19T14:56:54;3.42;;;2.33;;
19291;SDS011;9779;51.756;7.450;2022-08-19T14:59:20;2.80;;;1.80;;
19291;SDS011;9779;51.756;7.450;2022-08-19T15:01:46;2.65;;;2.10;;
19291;SDS011;9779;51.756;7.450;2022-08-19T15:04:11;2.13;;;2.03;;
19291;SDS011;9779;51.756;7.450;2022-08-19T15:06:37;3.40;;;1.80;;
19291;SDS011;9779;51.756;7.450;2022-08-19T15:09:03;6.22;;;1.83;;
19291;SDS011;9779;51.756;7.450;2022-08-19T15:11:29;6.73;;;2.20;;
19291;SDS011;9779;51.756;7.450;2022-08-19T15:13:57;4.57;;;2.10;;